Time;durP1;ratioP1;P1;durP2;ratioP2;P2;SDS_P1;SDS_P2;PMS_P1;PMS_P2;Temp;Humidity;BMP_temperature;BMP_pressure;BME280_temperature;BME280_humidity;BME280_pressure;Samples;Min_cycle;Max_cycle;Signal;HPM_P1;HPM_P2
2023/02/06 00:00:16;;;;;;;0.30;0.30;;;2.50;99.90;;;;;;5076234;28;20427;-79
2023/02/06 00:02:43;;;;;;;2.17;0.80;;;2.50;99.90;;;;;;5076189;28;20456;-79
2023/02/06 00:05:10;;;;;;;0.40;0.40;;;2.50;99.90;;;;;;5076486;28;20453;-79
2023/02/06 00:07:38;;;;;;;10.83;1.20;;;2.50;99.90;;;;;;5076061;28;20850;-79
2023/02/06 00:10:05;;;;;;;1.27;0.40;;;2.50;99.90;;;;;;5076158;28;20464;-79
2023/02/06 00:12:32;;;;;;;0.30;0.30;;;2.50;99.90;;;;;;5076329;28;20441;-79
2023/02/06 00:14:59;;;;;;;0.40;0.40;;;2.50;99.90;;;;;;5076362;28;20445;-79
2023/02/06 00:17:25;;;;;;;1.23;1.20;;;2.40;99.90;;;;;;5075912;28;20994;-79
2023/02/06 00:19:52;;;;;;;0.50;0.50;;;2.40;99.90;;;;;;5075925;28;20832;-79
2023/02/06 00:22:19;;;;;;;2.93;0.93;;;2.50;99.90;;;;;;5075882;28;20438;-79
2023/02/06 00:24:47;;;;;;;4.73;1.20;;;2.50;99.90;;;;;;5076134;28;20449;-80
2023/02/06 00:27:13;;;;;;;0.60;0.40;;;2.40;99.90;;;;;;5075712;28;20804;-80
2023/02/06 00:29:40;;;;;;;0.80;0.70;;;2.50;99.90;;;;;;5076020;28;20452;-80
2023/02/06 00:32:07;;;;;;;1.60;1.40;;;2.50;99.90;;;;;;5075892;28;20484;-79
2023/02/06 00:34:34;;;;;;;0.60;0.60;;;2.40;99.90;;;;;;5076420;28;20456;-79
2023/02/06 00:37:01;;;;;;;1.43;1.20;;;2.50;99.90;;;;;;5075386;28;20477;-79
2023/02/06 00:39:27;;;;;;;1.07;1.07;;;2.50;99.90;;;;;;5075877;28;20445;-79
2023/02/06 00:41:55;;;;;;;1.13;0.70;;;2.40;99.90;;;;;;5076637;28;20453;-79
2023/02/06 00:44:22;;;;;;;1.90;0.50;;;2.40;99.90;;;;;;5075775;28;20442;-79
2023/02/06 00:46:49;;;;;;;1.00;0.80;;;2.40;99.90;;;;;;5075329;28;20468;-79
2023/02/06 00:49:16;;;;;;;2.30;1.30;;;2.40;99.90;;;;;;5075705;28;20813;-80
2023/02/06 00:51:43;;;;;;;1.47;1.37;;;2.30;99.90;;;;;;5075531;28;20492;-79
2023/02/06 00:54:10;;;;;;;0.47;0.47;;;2.30;99.90;;;;;;5074850;28;20452;-79
2023/02/06 00:56:36;;;;;;;0.30;0.30;;;2.30;99.90;;;;;;5075509;28;20953;-79
2023/02/06 00:59:04;;;;;;;3.70;1.80;;;2.30;99.90;;;;;;5075490;28;20441;-79
2023/02/06 01:01:31;;;;;;;0.40;0.40;;;2.20;99.90;;;;;;5075470;28;20453;-79
2023/02/06 01:03:58;;;;;;;0.40;0.40;;;2.20;99.90;;;;;;5075415;28;20441;-79
2023/02/06 01:06:25;;;;;;;1.03;1.00;;;2.20;99.90;;;;;;5075016;28;21026;-79
2023/02/06 01:08:52;;;;;;;0.60;0.60;;;2.20;99.90;;;;;;5075340;28;20456;-79
2023/02/06 01:11:22;;;;;;;0.50;0.43;;;2.30;99.90;;;;;;5075209;28;20481;-79
2023/02/06 01:13:49;;;;;;;0.40;0.40;;;2.30;99.90;;;;;;5074929;28;20430;-79
2023/02/06 01:16:19;;;;;;;4.20;1.07;;;2.20;99.90;;;;;;5075128;28;20513;-79
2023/02/06 01:18:46;;;;;;;0.60;0.60;;;2.30;99.90;;;;;;5074860;28;20937;-79
2023/02/06 01:21:15;;;;;;;0.87;0.50;;;2.20;99.90;;;;;;5075072;28;20459;-79
2023/02/06 01:23:43;;;;;;;0.30;0.30;;;2.30;99.90;;;;;;5075045;28;20445;-79
2023/02/06 01:26:12;;;;;;;1.47;0.53;;;2.40;99.90;;;;;;5074606;28;20470;-79
2023/02/06 01:28:41;;;;;;;0.53;0.53;;;2.30;99.90;;;;;;5074879;28;20456;-80
2023/02/06 01:31:11;;;;;;;2.43;0.80;;;2.30;99.90;;;;;;5074508;28;21012;-80
2023/02/06 01:33:40;;;;;;;0.30;0.30;;;2.30;99.90;;;;;;5074816;28;20461;-80
2023/02/06 01:36:07;;;;;;;2.03;0.50;;;2.30;99.90;;;;;;5074220;28;20481;-80
2023/02/06 01:38:34;;;;;;;1.03;0.73;;;2.30;99.90;;;;;;5074684;28;20473;-80
2023/02/06 01:41:01;;;;;;;0.83;0.47;;;2.30;99.90;;;;;;5074709;28;20442;-79
2023/02/06 01:43:32;;;;;;;5.17;0.50;;;2.30;99.90;;;;;;5074331;28;20434;-79
2023/02/06 01:45:59;;;;;;;0.70;0.70;;;2.30;99.90;;;;;;5074543;28;20830;-79
2023/02/06 01:48:32;;;;;;;1.53;0.97;;;2.30;99.90;;;;;;5074509;28;20453;-79
2023/02/06 01:51:02;;;;;;;1.27;0.80;;;2.30;99.90;;;;;;5074099;28;20863;-79
2023/02/06 01:53:30;;;;;;;0.80;0.80;;;2.30;99.90;;;;;;5074433;28;20448;-79
2023/02/06 01:56:01;;;;;;;0.40;0.40;;;2.30;99.90;;;;;;5074297;28;20472;-79
2023/02/06 01:58:33;;;;;;;5.23;1.73;;;2.30;99.90;;;;;;5074367;28;20445;-79
2023/02/06 02:01:01;;;;;;;0.50;0.50;;;2.30;99.90;;;;;;5074324;28;20426;-79
2023/02/06 02:03:29;;;;;;;0.80;0.40;;;2.40;99.90;;;;;;5074223;28;20449;-79
2023/02/06 02:06:05;;;;;;;2.47;0.50;;;2.40;99.90;;;;;;5073606;28;20845;-79
2023/02/06 02:08:37;;;;;;;0.40;0.40;;;2.40;99.90;;;;;;5074190;28;20437;-79
2023/02/06 02:11:06;;;;;;;3.43;1.13;;;2.40;99.90;;;;;;5074060;28;20469;-79
2023/02/06 02:13:33;;;;;;;0.97;0.97;;;2.40;99.90;;;;;;5074040;28;20449;-79
2023/02/06 02:16:05;;;;;;;1.23;0.83;;;2.40;99.90;;;;;;5073799;28;20477;-79
2023/02/06 02:18:49;;;;;;;2.27;0.50;;;2.40;99.90;;;;;;5074000;28;20430;-79
2023/02/06 02:21:56;;;;;;;5.37;1.07;;;2.40;99.90;;;;;;5073921;28;20421;-79
2023/02/06 02:24:31;;;;;;;0.60;0.60;;;2.50;99.90;;;;;;5073249;28;20964;-79
2023/02/06 02:27:29;;;;;;;0.40;0.30;;;2.40;99.90;;;;;;5073770;28;20469;-79
2023/02/06 02:30:24;;;;;;;0.53;0.53;;;2.50;99.90;;;;;;5073779;28;20441;-79
2023/02/06 02:33:23;;;;;;;1.50;1.40;;;2.50;99.90;;;;;;5073747;28;20470;-79
2023/02/06 02:35:57;;;;;;;9.73;1.37;;;2.40;99.90;;;;;;5073350;28;20485;-79
2023/02/06 02:38:39;;;;;;;0.30;0.20;;;2.40;99.90;;;;;;5073841;28;20536;-79
2023/02/06 02:41:15;;;;;;;2.00;0.60;;;2.50;99.90;;;;;;5073632;28;20449;-79
2023/02/06 02:43:44;;;;;;;0.50;0.50;;;2.40;99.90;;;;;;5073614;28;20425;-79
2023/02/06 02:46:18;;;;;;;5.53;2.17;;;2.50;99.90;;;;;;5073781;28;20477;-79
2023/02/06 02:48:48;;;;;;;0.60;0.60;;;2.40;99.90;;;;;;5073552;28;20487;-79
2023/02/06 02:51:18;;;;;;;1.73;0.90;;;2.40;99.90;;;;;;5073423;28;20476;-79
2023/02/06 02:53:45;;;;;;;2.30;0.90;;;2.40;99.90;;;;;;5073492;28;20433;-79
2023/02/06 02:56:18;;;;;;;0.83;0.63;;;2.40;99.90;;;;;;5073379;28;20481;-79
2023/02/06 02:58:47;;;;;;;0.90;0.90;;;2.40;99.90;;;;;;5073398;28;20445;-79
2023/02/06 03:01:19;;;;;;;1.53;0.60;;;2.40;99.90;;;;;;5073421;28;20442;-79
2023/02/06 03:03:48;;;;;;;0.70;0.53;;;2.40;99.90;;;;;;5073405;28;20430;-79
2023/02/06 03:06:34;;;;;;;1.33;0.70;;;2.40;99.90;;;;;;5073262;28;20652;-79
2023/02/06 03:09:08;;;;;;;0.90;0.30;;;2.40;99.90;;;;;;5073389;28;20426;-79
2023/02/06 03:11:39;;;;;;;1.23;0.50;;;2.30;99.90;;;;;;5073257;28;20493;-79
2023/02/06 03:14:10;;;;;;;1.27;1.17;;;2.40;99.90;;;;;;5073292;28;20429;-79
2023/02/06 03:16:40;;;;;;;2.93;0.77;;;2.30;99.90;;;;;;5073238;28;20461;-79
2023/02/06 03:19:12;;;;;;;2.90;1.20;;;2.30;99.90;;;;;;5076304;28;20792;-79
2023/02/06 03:21:42;;;;;;;0.40;0.40;;;2.30;99.90;;;;;;5077393;28;20446;-79
2023/02/06 03:24:13;;;;;;;1.53;1.53;;;2.30;99.90;;;;;;5077341;28;20445;-79
2023/02/06 03:26:41;;;;;;;1.27;1.17;;;2.20;99.90;;;;;;5077448;28;20461;-79
2023/02/06 03:29:12;;;;;;;7.07;0.87;;;2.20;99.90;;;;;;5077214;28;20445;-79
2023/02/06 03:31:43;;;;;;;1.33;1.17;;;2.20;99.90;;;;;;5077070;28;20481;-79
2023/02/06 03:34:15;;;;;;;10.13;1.87;;;2.20;99.90;;;;;;5077184;28;20432;-79
2023/02/06 03:36:43;;;;;;;0.30;0.30;;;2.20;99.90;;;;;;5076666;28;20489;-80
2023/02/06 03:39:11;;;;;;;2.10;1.63;;;2.20;99.90;;;;;;5077024;28;20450;-79
2023/02/06 03:41:39;;;;;;;1.67;0.87;;;2.20;99.90;;;;;;5076967;28;20457;-79
2023/02/06 03:44:10;;;;;;;0.90;0.77;;;2.20;99.90;;;;;;5076907;28;20453;-79
2023/02/06 03:46:41;;;;;;;7.73;1.40;;;2.10;99.90;;;;;;5076820;28;20481;-79
2023/02/06 03:49:11;;;;;;;0.40;0.40;;;2.10;99.90;;;;;;5076848;28;20429;-79
2023/02/06 03:51:43;;;;;;;1.50;1.17;;;2.10;99.90;;;;;;5076370;28;20484;-79
2023/02/06 03:54:13;;;;;;;3.07;0.80;;;2.10;99.90;;;;;;5076774;28;20774;-79
2023/02/06 03:56:47;;;;;;;1.23;0.60;;;2.10;99.90;;;;;;5076574;28;20469;-79
2023/02/06 03:59:14;;;;;;;0.57;0.57;;;2.20;99.90;;;;;;5076634;28;20437;-80
2023/02/06 04:01:43;;;;;;;1.60;0.83;;;2.20;99.90;;;;;;5076530;28;20449;-79
2023/02/06 04:04:10;;;;;;;1.13;0.57;;;2.20;99.90;;;;;;5076498;28;20449;-79
2023/02/06 04:06:37;;;;;;;0.80;0.40;;;2.30;99.90;;;;;;5076072;28;20980;-79
2023/02/06 04:09:03;;;;;;;6.97;0.70;;;2.30;99.90;;;;;;5076147;28;20948;-79
2023/02/06 04:11:31;;;;;;;3.57;2.50;;;2.20;99.90;;;;;;5076295;28;20481;-79
2023/02/06 04:13:58;;;;;;;0.97;0.63;;;2.20;99.90;;;;;;5076035;28;20931;-79
2023/02/06 04:16:25;;;;;;;2.40;0.50;;;2.10;99.90;;;;;;5076220;28;20479;-79
2023/02/06 04:18:52;;;;;;;0.73;0.70;;;2.20;99.90;;;;;;5076241;28;20450;-79
2023/02/06 04:21:18;;;;;;;0.50;0.50;;;2.20;99.90;;;;;;5076228;28;20819;-79
2023/02/06 04:23:45;;;;;;;2.70;2.17;;;2.20;99.90;;;;;;5076155;28;20456;-79
2023/02/06 04:26:12;;;;;;;1.90;0.50;;;2.20;99.90;;;;;;5076064;28;20480;-79
2023/02/06 04:28:40;;;;;;;7.33;0.93;;;2.20;99.90;;;;;;5075727;28;20816;-79
2023/02/06 04:31:06;;;;;;;2.37;0.57;;;2.20;99.90;;;;;;5076045;28;20460;-79
2023/02/06 04:33:33;;;;;;;0.70;0.67;;;2.30;99.90;;;;;;5075900;28;20485;-79
2023/02/06 04:36:00;;;;;;;0.37;0.37;;;2.30;99.90;;;;;;5075354;28;20856;-79
2023/02/06 04:38:27;;;;;;;0.90;0.90;;;2.20;99.90;;;;;;5075935;28;20869;-79
2023/02/06 04:40:53;;;;;;;0.50;0.50;;;2.30;99.90;;;;;;5076540;28;20456;-79
2023/02/06 04:43:20;;;;;;;1.17;0.67;;;2.30;99.90;;;;;;5075809;28;20453;-79
2023/02/06 04:45:48;;;;;;;1.50;0.40;;;2.30;99.90;;;;;;5075437;28;20468;-79
2023/02/06 04:48:15;;;;;;;0.70;0.60;;;2.30;99.90;;;;;;5075781;28;20449;-79
2023/02/06 04:50:41;;;;;;;2.43;1.03;;;2.30;99.90;;;;;;5075362;28;20952;-79
2023/02/06 04:53:08;;;;;;;1.13;1.03;;;2.20;99.90;;;;;;5075624;28;20489;-79
2023/02/06 04:55:35;;;;;;;0.37;0.37;;;2.10;99.90;;;;;;5075590;28;20437;-79
2023/02/06 04:58:02;;;;;;;11.63;1.30;;;2.20;99.90;;;;;;5075609;28;20473;-79
2023/02/06 05:00:29;;;;;;;0.60;0.53;;;2.20;99.90;;;;;;5075232;28;20450;-79
2023/02/06 05:02:57;;;;;;;0.50;0.50;;;2.20;99.90;;;;;;5075482;28;20446;-80
2023/02/06 05:05:23;;;;;;;1.73;1.43;;;2.20;99.90;;;;;;5075370;28;20451;-79
2023/02/06 05:07:50;;;;;;;3.80;1.73;;;2.20;99.90;;;;;;5075407;28;20477;-79
2023/02/06 05:10:17;;;;;;;4.40;1.40;;;2.10;99.90;;;;;;5075336;28;20451;-79
2023/02/06 05:12:44;;;;;;;0.83;0.83;;;2.10;99.90;;;;;;5075198;28;20500;-79
2023/02/06 05:15:11;;;;;;;1.23;0.77;;;2.20;99.90;;;;;;5075222;28;20461;-79
2023/02/06 05:17:38;;;;;;;1.30;1.30;;;2.20;99.90;;;;;;5074805;28;20855;-79
2023/02/06 05:20:07;;;;;;;0.50;0.50;;;2.20;99.90;;;;;;5074879;28;20460;-79
2023/02/06 05:22:34;;;;;;;0.37;0.37;;;2.20;99.90;;;;;;5074779;28;20960;-79
2023/02/06 05:25:01;;;;;;;3.10;2.63;;;2.20;99.90;;;;;;5075043;28;20445;-79
2023/02/06 05:27:28;;;;;;;0.83;0.83;;;2.20;99.90;;;;;;5074598;28;20484;-79
2023/02/06 05:29:55;;;;;;;2.00;1.03;;;2.20;99.90;;;;;;5074910;28;20453;-79
2023/02/06 05:32:21;;;;;;;1.93;0.80;;;2.00;99.90;;;;;;5074839;28;20509;-79
2023/02/06 05:34:48;;;;;;;2.60;0.77;;;2.00;99.90;;;;;;5074628;28;20461;-79
2023/02/06 05:37:16;;;;;;;0.60;0.60;;;2.10;99.90;;;;;;5074719;28;20465;-79
2023/02/06 05:39:43;;;;;;;2.20;2.10;;;2.10;99.90;;;;;;5074758;28;20442;-79
2023/02/06 05:42:09;;;;;;;0.63;0.50;;;2.10;99.90;;;;;;5074158;28;20452;-79
2023/02/06 05:44:36;;;;;;;0.80;0.80;;;2.10;99.90;;;;;;5074596;28;20445;-79
2023/02/06 05:47:03;;;;;;;3.23;1.17;;;2.10;99.90;;;;;;5074480;28;20465;-79
2023/02/06 05:49:30;;;;;;;18.10;1.23;;;2.10;99.90;;;;;;5074509;28;20441;-80
2023/02/06 05:51:56;;;;;;;0.87;0.87;;;2.10;99.90;;;;;;5074399;28;20453;-79
2023/02/06 05:54:25;;;;;;;3.50;1.10;;;2.00;99.90;;;;;;5074487;28;20446;-79
2023/02/06 05:56:51;;;;;;;0.40;0.40;;;2.00;99.90;;;;;;5074366;28;20472;-79
2023/02/06 05:59:18;;;;;;;2.40;2.20;;;2.10;99.90;;;;;;5074339;28;20449;-80
2023/02/06 06:01:45;;;;;;;4.63;1.47;;;2.10;99.90;;;;;;5073988;28;20826;-80
2023/02/06 06:04:12;;;;;;;1.00;1.00;;;2.00;99.90;;;;;;5074183;28;20461;-80
2023/02/06 06:06:38;;;;;;;0.90;0.90;;;2.00;99.90;;;;;;5073786;28;20469;-79
2023/02/06 06:09:05;;;;;;;2.30;1.47;;;2.00;99.90;;;;;;5074134;28;20449;-79
2023/02/06 06:11:33;;;;;;;3.40;0.90;;;2.00;99.90;;;;;;5074090;28;20450;-80
2023/02/06 06:14:00;;;;;;;1.33;1.03;;;2.00;99.90;;;;;;5073908;28;20848;-80
2023/02/06 06:16:27;;;;;;;2.50;0.60;;;2.00;99.90;;;;;;5073968;28;20839;-79
2023/02/06 06:18:55;;;;;;;1.77;1.30;;;2.00;99.90;;;;;;5073685;28;20457;-79
2023/02/06 06:21:22;;;;;;;0.90;0.90;;;2.00;99.90;;;;;;5073599;28;20499;-79
2023/02/06 06:23:49;;;;;;;0.50;0.40;;;2.00;99.90;;;;;;5073907;28;20446;-79
2023/02/06 06:26:16;;;;;;;6.73;1.23;;;2.00;99.90;;;;;;5073487;28;21012;-79
2023/02/06 06:28:44;;;;;;;3.83;3.07;;;2.00;99.90;;;;;;5073511;28;20445;-79
2023/02/06 06:31:12;;;;;;;1.27;0.80;;;2.00;99.90;;;;;;5073733;28;20446;-79
2023/02/06 06:33:39;;;;;;;0.90;0.80;;;2.00;99.90;;;;;;5073618;28;20481;-79
2023/02/06 06:36:09;;;;;;;1.80;0.93;;;2.10;99.90;;;;;;5073264;28;20482;-79
2023/02/06 06:38:36;;;;;;;0.70;0.70;;;2.10;99.90;;;;;;5073387;28;20454;-79
2023/02/06 06:41:03;;;;;;;2.40;0.60;;;2.10;99.90;;;;;;5073358;28;20980;-79
2023/02/06 06:43:30;;;;;;;0.90;0.50;;;2.10;99.90;;;;;;5073606;28;20816;-79
2023/02/06 06:46:00;;;;;;;1.60;0.80;;;2.10;99.90;;;;;;5073505;28;20474;-80
2023/02/06 06:48:27;;;;;;;0.30;0.30;;;2.10;99.90;;;;;;5073246;28;20941;-80
2023/02/06 06:50:54;;;;;;;1.00;0.70;;;2.10;99.90;;;;;;5073532;28;20468;-80
2023/02/06 06:53:21;;;;;;;2.20;2.10;;;2.10;99.90;;;;;;5072563;28;20492;-80
2023/02/06 06:55:48;;;;;;;0.50;0.50;;;2.10;99.90;;;;;;5073381;28;20469;-80
2023/02/06 06:58:15;;;;;;;2.00;0.50;;;2.10;99.90;;;;;;5073443;28;20446;-80
2023/02/06 07:00:42;;;;;;;0.93;0.60;;;2.10;99.90;;;;;;5073107;28;20453;-80
2023/02/06 07:03:11;;;;;;;1.00;0.90;;;2.10;99.90;;;;;;5073409;28;20808;-80
2023/02/06 07:05:38;;;;;;;1.03;0.53;;;2.10;99.90;;;;;;5073298;28;20481;-80
2023/02/06 07:08:05;;;;;;;1.10;1.07;;;2.10;99.90;;;;;;5073331;28;20449;-80
2023/02/06 07:10:32;;;;;;;0.50;0.50;;;2.20;99.90;;;;;;5073338;28;20509;-80
2023/02/06 07:12:59;;;;;;;1.13;1.13;;;2.20;99.90;;;;;;5073180;28;20485;-80
2023/02/06 07:15:26;;;;;;;2.10;0.93;;;2.20;99.90;;;;;;5073173;28;20453;-80
2023/02/06 07:17:52;;;;;;;0.70;0.70;;;2.20;99.90;;;;;;5073225;28;20488;-80
2023/02/06 07:20:21;;;;;;;0.93;0.93;;;2.10;99.90;;;;;;5073202;28;20461;-80
2023/02/06 07:22:49;;;;;;;0.30;0.30;;;2.00;99.90;;;;;;5072736;28;20453;-80
2023/02/06 07:25:16;;;;;;;1.07;0.97;;;2.00;99.90;;;;;;5072854;28;20515;-80
2023/02/06 07:27:42;;;;;;;0.50;0.50;;;2.00;99.90;;;;;;5073038;28;20448;-80
2023/02/06 07:30:10;;;;;;;1.23;0.60;;;2.00;99.90;;;;;;5073053;28;20453;-80
2023/02/06 07:32:37;;;;;;;2.23;2.13;;;2.00;99.90;;;;;;5073032;28;20509;-79
2023/02/06 07:35:05;;;;;;;0.60;0.60;;;2.00;99.90;;;;;;5072551;28;20824;-79
2023/02/06 07:37:33;;;;;;;1.47;0.93;;;2.00;99.90;;;;;;5073032;28;20477;-79
2023/02/06 07:40:00;;;;;;;1.17;0.50;;;1.90;99.90;;;;;;5072749;28;20453;-80
2023/02/06 07:42:27;;;;;;;2.83;0.60;;;2.00;99.90;;;;;;5072750;28;20438;-80
2023/02/06 07:44:53;;;;;;;1.03;1.03;;;2.00;99.90;;;;;;5072985;28;20449;-80
2023/02/06 07:47:20;;;;;;;1.40;0.90;;;2.00;99.90;;;;;;5072892;28;20473;-80
2023/02/06 07:49:47;;;;;;;1.23;0.70;;;2.10;99.90;;;;;;5072948;28;20464;-80
2023/02/06 07:52:14;;;;;;;1.07;0.97;;;2.10;99.90;;;;;;5072959;28;20822;-80
2023/02/06 07:54:43;;;;;;;2.27;0.80;;;2.10;99.90;;;;;;5072520;28;21024;-80
2023/02/06 07:57:09;;;;;;;2.13;1.93;;;2.10;99.90;;;;;;5072520;28;20465;-80
2023/02/06 07:59:36;;;;;;;0.77;0.77;;;2.10;99.90;;;;;;5072844;28;20449;-80
2023/02/06 08:02:03;;;;;;;1.60;0.90;;;2.10;99.90;;;;;;5072512;28;20446;-80
2023/02/06 08:04:33;;;;;;;0.67;0.67;;;2.10;99.90;;;;;;5074465;28;20441;-80
2023/02/06 08:07:01;;;;;;;0.90;0.57;;;2.10;99.90;;;;;;5076466;28;20465;-80
2023/02/06 08:09:27;;;;;;;0.50;0.50;;;2.10;99.90;;;;;;5076498;28;20452;-80
2023/02/06 08:11:55;;;;;;;0.50;0.50;;;2.10;99.90;;;;;;5076411;28;20448;-79
2023/02/06 08:14:22;;;;;;;2.83;1.57;;;2.10;99.90;;;;;;5076266;28;20477;-79
2023/02/06 08:16:49;;;;;;;0.40;0.40;;;2.20;99.90;;;;;;5076248;28;20461;-79
2023/02/06 08:19:16;;;;;;;0.80;0.67;;;2.20;99.90;;;;;;5076255;28;20461;-79
2023/02/06 08:21:42;;;;;;;2.10;0.83;;;2.30;99.90;;;;;;5076195;28;20457;-79
2023/02/06 08:24:12;;;;;;;1.40;1.07;;;2.40;99.90;;;;;;5076178;28;20441;-79
2023/02/06 08:26:38;;;;;;;1.00;1.00;;;2.50;99.90;;;;;;5076015;28;20476;-79
2023/02/06 08:29:07;;;;;;;0.60;0.50;;;2.40;99.90;;;;;;5076129;28;20446;-80
2023/02/06 08:31:36;;;;;;;1.37;0.63;;;2.50;99.90;;;;;;5076094;28;20449;-80
2023/02/06 08:34:03;;;;;;;1.43;1.33;;;2.50;99.90;;;;;;5075985;28;20508;-80
2023/02/06 08:36:30;;;;;;;0.63;0.43;;;2.60;99.90;;;;;;5075369;28;20492;-80
2023/02/06 08:38:58;;;;;;;0.63;0.63;;;2.70;99.90;;;;;;5075988;28;20446;-80
2023/02/06 08:41:27;;;;;;;1.20;0.67;;;2.70;99.90;;;;;;5075949;28;20441;-80
2023/02/06 08:43:55;;;;;;;1.73;0.93;;;2.80;99.90;;;;;;5075567;28;20886;-80
2023/02/06 08:46:29;;;;;;;0.53;0.40;;;2.90;99.90;;;;;;5075754;28;20476;-80
2023/02/06 08:48:57;;;;;;;0.30;0.30;;;3.00;99.90;;;;;;5075579;28;20437;-80
2023/02/06 08:51:26;;;;;;;0.70;0.70;;;3.00;99.90;;;;;;5075441;28;20445;-80
2023/02/06 08:53:55;;;;;;;0.60;0.60;;;2.90;99.90;;;;;;5075617;28;20477;-80
2023/02/06 08:56:22;;;;;;;1.23;1.10;;;2.90;99.90;;;;;;5075564;28;20461;-80
2023/02/06 08:58:49;;;;;;;1.43;1.43;;;2.90;99.90;;;;;;5075588;28;20449;-80
2023/02/06 09:01:16;;;;;;;0.37;0.37;;;2.90;99.90;;;;;;5075559;28;20446;-80
2023/02/06 09:03:45;;;;;;;2.53;1.00;;;2.80;99.90;;;;;;5075529;28;20499;-80
2023/02/06 09:06:13;;;;;;;6.80;1.27;;;2.90;99.90;;;;;;5075060;28;21007;-79
2023/02/06 09:08:41;;;;;;;0.70;0.70;;;2.80;99.90;;;;;;5075430;28;20445;-79
2023/02/06 09:11:09;;;;;;;0.90;0.90;;;2.90;99.90;;;;;;5075365;28;20503;-79
2023/02/06 09:13:36;;;;;;;0.30;0.30;;;2.90;99.90;;;;;;5075236;28;20488;-80
2023/02/06 09:16:04;;;;;;;1.03;0.90;;;2.90;99.90;;;;;;5074319;28;20496;-80
2023/02/06 09:18:31;;;;;;;1.40;0.57;;;2.90;99.90;;;;;;5075217;28;20451;-80
2023/02/06 09:21:08;;;;;;;0.60;0.60;;;2.80;99.90;;;;;;5074873;28;20845;-80
2023/02/06 09:23:35;;;;;;;1.60;1.00;;;2.70;99.90;;;;;;5075143;28;20434;-79
2023/02/06 09:26:05;;;;;;;0.30;0.30;;;2.70;99.90;;;;;;5074990;28;20462;-79
2023/02/06 09:28:32;;;;;;;0.40;0.30;;;2.60;99.90;;;;;;5075303;28;20442;-80
2023/02/06 09:30:59;;;;;;;0.30;0.30;;;2.50;99.90;;;;;;5074963;28;20449;-80
2023/02/06 09:33:26;;;;;;;0.40;0.40;;;2.60;99.90;;;;;;5075716;28;20503;-80
2023/02/06 09:36:02;;;;;;;1.27;0.67;;;2.60;99.90;;;;;;5074489;28;20547;-80
2023/02/06 09:38:30;;;;;;;0.73;0.40;;;2.70;99.90;;;;;;5074856;28;20480;-81
2023/02/06 09:41:00;;;;;;;2.30;0.90;;;2.70;99.90;;;;;;5074764;28;20454;-81
2023/02/06 09:43:28;;;;;;;2.00;0.93;;;2.70;99.90;;;;;;5074651;28;20446;-81
2023/02/06 09:45:59;;;;;;;0.30;0.30;;;2.70;99.90;;;;;;5074284;28;20847;-81
2023/02/06 09:48:28;;;;;;;4.00;1.33;;;2.90;99.90;;;;;;5074756;28;20438;-81
2023/02/06 09:51:02;;;;;;;0.70;0.57;;;2.90;99.90;;;;;;5074668;28;20446;-80
2023/02/06 09:53:39;;;;;;;0.30;0.30;;;2.90;99.90;;;;;;5074506;28;20465;-80
2023/02/06 09:56:15;;;;;;;1.53;0.90;;;2.80;99.90;;;;;;5074477;28;20461;-80
2023/02/06 09:58:46;;;;;;;0.30;0.30;;;2.70;99.90;;;;;;5074402;28;20430;-80
2023/02/06 10:01:17;;;;;;;0.70;0.40;;;2.70;99.90;;;;;;5074469;28;20434;-80
2023/02/06 10:04:11;;;;;;;0.50;0.50;;;2.70;99.90;;;;;;5074417;28;20521;-80
2023/02/06 10:06:48;;;;;;;0.40;0.33;;;2.60;99.90;;;;;;5073968;28;20504;-81
2023/02/06 10:09:20;;;;;;;0.40;0.40;;;2.50;99.90;;;;;;5074244;28;20437;-86
2023/02/06 10:11:53;;;;;;;0.50;0.50;;;2.60;99.90;;;;;;5074128;28;20437;-81
2023/02/06 10:14:27;;;;;;;0.40;0.30;;;2.60;99.90;;;;;;5074102;28;20466;-81
2023/02/06 10:16:58;;;;;;;0.40;0.30;;;2.60;99.90;;;;;;5074035;28;20469;-81
2023/02/06 10:19:38;;;;;;;1.13;0.87;;;2.70;99.90;;;;;;5074029;28;20797;-81
2023/02/06 10:22:11;;;;;;;1.50;0.40;;;2.70;99.90;;;;;;5073764;28;20437;-81
2023/02/06 10:24:44;;;;;;;0.30;0.20;;;2.80;99.90;;;;;;5073967;28;20434;-81
2023/02/06 10:27:12;;;;;;;2.10;0.60;;;2.80;99.90;;;;;;5073545;28;20450;-81
2023/02/06 10:29:41;;;;;;;0.40;0.30;;;2.90;99.90;;;;;;5073889;28;20449;-81
2023/02/06 10:32:19;;;;;;;0.30;0.30;;;2.90;99.90;;;;;;5073808;28;20449;-81
2023/02/06 10:35:19;;;;;;;0.40;0.33;;;3.00;99.90;;;;;;5073720;28;20469;-81
2023/02/06 10:38:16;;;;;;;0.30;0.30;;;2.90;99.90;;;;;;5058097;28;20457;-81
2023/02/06 10:40:51;;;;;;;2.37;0.90;;;2.80;99.90;;;;;;5073718;28;20453;-81
2023/02/06 10:43:29;;;;;;;0.50;0.50;;;2.80;99.90;;;;;;5073416;28;20904;-81
2023/02/06 10:46:03;;;;;;;1.13;0.60;;;2.90;99.90;;;;;;5073625;28;20465;-81
2023/02/06 10:48:35;;;;;;;0.50;0.40;;;2.80;99.90;;;;;;5073620;28;20437;-81
2023/02/06 10:51:12;;;;;;;0.40;0.40;;;2.80;99.90;;;;;;5073614;28;20449;-81
2023/02/06 10:53:45;;;;;;;0.80;0.80;;;2.80;99.90;;;;;;5073563;28;20464;-81
2023/02/06 10:56:16;;;;;;;0.40;0.30;;;2.70;99.90;;;;;;5073151;28;20504;-81
2023/02/06 10:58:48;;;;;;;0.50;0.50;;;2.60;99.90;;;;;;5073434;28;20448;-81
2023/02/06 11:01:16;;;;;;;0.30;0.20;;;2.50;99.90;;;;;;5073452;28;20442;-81
2023/02/06 11:03:46;;;;;;;0.30;0.30;;;2.50;99.90;;;;;;5073417;28;20450;-81
2023/02/06 11:06:16;;;;;;;0.30;0.30;;;2.50;99.90;;;;;;5073019;28;20995;-81
2023/02/06 11:08:45;;;;;;;0.30;0.30;;;2.40;99.90;;;;;;5073376;28;20452;-81
2023/02/06 11:11:22;;;;;;;0.40;0.40;;;2.40;99.90;;;;;;5073039;28;20960;-81
2023/02/06 11:13:52;;;;;;;1.17;0.90;;;2.50;99.90;;;;;;5073269;28;20469;-81
2023/02/06 11:16:24;;;;;;;0.80;0.40;;;2.50;99.90;;;;;;5073336;28;20469;-81
2023/02/06 11:18:52;;;;;;;0.50;0.40;;;2.50;99.90;;;;;;5073367;28;20437;-81
2023/02/06 11:21:47;;;;;;;0.40;0.37;;;2.40;99.90;;;;;;5072956;28;20933;-81
2023/02/06 11:24:16;;;;;;;0.30;0.23;;;2.30;99.90;;;;;;5074136;28;20425;-81
2023/02/06 11:26:48;;;;;;;0.30;0.30;;;2.30;99.90;;;;;;5073034;28;20568;-81
2023/02/06 11:29:18;;;;;;;0.30;0.30;;;2.40;99.90;;;;;;5073234;28;20426;-81
2023/02/06 11:31:48;;;;;;;0.30;0.30;;;2.40;99.90;;;;;;5072802;28;20969;-82
2023/02/06 11:34:26;;;;;;;0.40;0.40;;;2.50;99.90;;;;;;5072791;28;20985;-81
2023/02/06 11:36:55;;;;;;;0.40;0.30;;;2.60;99.90;;;;;;5072584;28;20492;-81
2023/02/06 11:39:25;;;;;;;0.80;0.53;;;2.60;99.90;;;;;;5074703;28;20453;-81
2023/02/06 11:41:59;;;;;;;0.40;0.30;;;2.60;99.90;;;;;;5077956;28;20433;-81
2023/02/06 11:44:27;;;;;;;0.37;0.30;;;2.50;99.90;;;;;;5077065;28;20429;-82
2023/02/06 11:46:55;;;;;;;0.40;0.37;;;2.60;99.90;;;;;;5076884;28;20473;-81
2023/02/06 11:49:27;;;;;;;0.33;0.33;;;2.60;99.90;;;;;;5076866;28;20453;-81
2023/02/06 11:51:58;;;;;;;0.30;0.20;;;2.80;99.90;;;;;;5076576;28;20933;-81
2023/02/06 11:54:27;;;;;;;0.40;0.40;;;2.90;99.90;;;;;;5076790;28;20532;-81
2023/02/06 11:57:06;;;;;;;0.30;0.23;;;3.00;99.90;;;;;;5076324;28;20838;-81
2023/02/06 11:59:34;;;;;;;1.87;1.17;;;2.90;99.90;;;;;;5076731;28;20866;-81
2023/02/06 12:02:05;;;;;;;0.30;0.20;;;3.00;99.90;;;;;;5076338;28;20441;-81
2023/02/06 12:04:36;;;;;;;0.30;0.30;;;3.00;99.90;;;;;;5076556;28;20453;-81
2023/02/06 12:07:12;;;;;;;0.90;0.60;;;2.90;99.90;;;;;;5076164;28;21014;-81
2023/02/06 12:09:39;;;;;;;0.33;0.30;;;2.90;99.90;;;;;;5076925;28;20417;-81
2023/02/06 12:12:16;;;;;;;1.07;0.67;;;3.00;99.90;;;;;;5076106;28;20456;-81
2023/02/06 12:14:48;;;;;;;0.33;0.30;;;3.10;99.90;;;;;;5076150;28;20473;-81
2023/02/06 12:17:24;;;;;;;1.00;0.50;;;3.20;99.90;;;;;;5076291;28;20469;-81
2023/02/06 12:20:05;;;;;;;1.00;0.70;;;3.10;99.90;;;;;;5076103;28;20944;-81
2023/02/06 12:22:36;;;;;;;0.50;0.50;;;3.20;99.90;;;;;;5075973;28;20441;-81
2023/02/06 12:25:04;;;;;;;0.40;0.40;;;3.20;99.90;;;;;;5076224;28;20430;-81
2023/02/06 12:27:37;;;;;;;0.30;0.30;;;3.20;99.90;;;;;;5075766;28;20465;-81
2023/02/06 12:30:16;;;;;;;0.30;0.30;;;3.10;99.90;;;;;;5076169;28;20429;-81
2023/02/06 12:32:48;;;;;;;3.53;0.70;;;2.90;99.90;;;;;;5075779;28;20908;-81
2023/02/06 12:35:21;;;;;;;0.40;0.40;;;2.80;99.90;;;;;;5075815;28;20489;-81
2023/02/06 12:37:52;;;;;;;2.63;0.63;;;2.90;99.90;;;;;;5076275;28;20429;-81
2023/02/06 12:40:34;;;;;;;0.30;0.30;;;2.80;99.90;;;;;;5076030;28;20425;-81
2023/02/06 12:43:07;;;;;;;0.60;0.60;;;2.70;99.90;;;;;;5075976;28;20438;-81
2023/02/06 12:45:43;;;;;;;0.53;0.53;;;2.70;99.90;;;;;;5075873;28;20426;-81
2023/02/06 12:48:17;;;;;;;0.70;0.47;;;2.70;99.90;;;;;;5075572;28;20925;-81
2023/02/06 12:50:48;;;;;;;0.30;0.30;;;2.70;99.90;;;;;;5074073;28;20942;-81
2023/02/06 12:53:20;;;;;;;6.47;0.80;;;2.70;99.90;;;;;;5075795;28;20932;-81
2023/02/06 12:55:50;;;;;;;0.30;0.30;;;2.80;99.90;;;;;;5075590;28;20496;-81
2023/02/06 12:58:28;;;;;;;0.30;0.30;;;2.80;99.90;;;;;;5076186;28;20434;-81
2023/02/06 13:01:29;;;;;;;1.90;0.50;;;2.80;99.90;;;;;;5075349;28;20800;-81
2023/02/06 13:03:58;;;;;;;0.33;0.33;;;2.80;99.90;;;;;;5075524;28;20442;-80
2023/02/06 13:06:29;;;;;;;0.30;0.30;;;2.80;99.90;;;;;;5075408;28;20476;-80
2023/02/06 13:08:58;;;;;;;0.67;0.67;;;2.80;99.90;;;;;;5075467;28;20425;-79
2023/02/06 13:11:28;;;;;;;0.30;0.30;;;2.80;99.90;;;;;;5075096;28;20816;-79